Melissa RD121's Hourly Summary for Friday, July 6, 2018
Hour Temp
(f)
RH
(%)
Solar Rad.
(MJ/m2)
Rainfall
(in)
Wind
(mph)
7/6/2018 12:00 AM 79 75 0 0 0
7/6/2018 1:00 AM 77 80 0 0 0
7/6/2018 2:00 AM 76 83 0 0 0
7/6/2018 3:00 AM 75 87 0 0 0
7/6/2018 4:00 AM 75 88 0 0 0
7/6/2018 5:00 AM 74 88 0 0 0
7/6/2018 6:00 AM 74 88 0.08 0 0
7/6/2018 7:00 AM 76 78 0.5 0 0.05
7/6/2018 8:00 AM 81 69 1.12 0 0.24
7/6/2018 9:00 AM 85 60 1.78 0 0.82
7/6/2018 10:00 AM 87 54 2.03 0 3.04
7/6/2018 11:00 AM 90 45 2.82 0 5.68
7/6/2018 12:00 PM 91 44 2.42 0 4.81
7/6/2018 1:00 PM 93 38 3.13 0 3.44
7/6/2018 2:00 PM 93 38 1.85 0 4.54
7/6/2018 3:00 PM 78 40 0.34 0.11 6.55
7/6/2018 4:00 PM 78 76 0.97 0 1.37
7/6/2018 5:00 PM 81 67 1.48 0 2.01
7/6/2018 6:00 PM 81 68 0.41 0 1.07
7/6/2018 7:00 PM 79 75 0.05 0 4.17
7/6/2018 8:00 PM 76 84 0 0.01 0.34
7/6/2018 9:00 PM 74 87 0 0 0
7/6/2018 10:00 PM 74 85 0 0 0.34
7/6/2018 11:00 PM 74 85 0 0 0
Data Summary 80 70 18.98 0.12 1.60